Terminal Aerodrome Forecast
Issued by NWS

Home | Current Version | Previous Version | Text Only | Print | Product List | Glossary On
Versions: 1 2 3 4 5 6 7 8 9 10 11 12 13 14 15 16 17
000
FTUS43 KDLH 170529
TAFHYR
TAF
KHYR 170529Z 1706/1806 17004KT P6SM BKN150
      TEMPO 1709/1713 4SM BR SCT007
     FM171500 17005KT 6SM BR SCT007
     FM171700 18005KT P6SM SCT200
     FM180300 21004KT P6SM SCT200=

USA.gov is the U.S. government's official web portal to all federal, state and local government web resources and services.